sensor_id;sensor_type;location;lat;lon;timestamp;P1;durP1;ratioP1;P2;durP2;ratioP2
1390;SDS011;690;51.454;7.194;2024-03-22T00:01:08;37.37;;;20.03;;
1390;SDS011;690;51.454;7.194;2024-03-22T00:03:35;38.87;;;21.57;;
1390;SDS011;690;51.454;7.194;2024-03-22T00:06:01;40.10;;;20.70;;
1390;SDS011;690;51.454;7.194;2024-03-22T00:08:28;37.40;;;21.30;;
1390;SDS011;690;51.454;7.194;2024-03-22T00:10:53;36.60;;;21.30;;
1390;SDS011;690;51.454;7.194;2024-03-22T00:13:21;33.80;;;19.57;;
1390;SDS011;690;51.454;7.194;2024-03-22T00:15:47;35.13;;;20.40;;
1390;SDS011;690;51.454;7.194;2024-03-22T00:18:15;40.87;;;20.73;;
1390;SDS011;690;51.454;7.194;2024-03-22T00:20:41;29.70;;;18.70;;
1390;SDS011;690;51.454;7.194;2024-03-22T00:23:08;39.43;;;22.77;;
1390;SDS011;690;51.454;7.194;2024-03-22T00:25:34;37.40;;;20.00;;
1390;SDS011;690;51.454;7.194;2024-03-22T00:28:01;36.67;;;21.50;;
1390;SDS011;690;51.454;7.194;2024-03-22T00:30:27;34.40;;;20.03;;
1390;SDS011;690;51.454;7.194;2024-03-22T00:32:54;36.00;;;20.30;;
1390;SDS011;690;51.454;7.194;2024-03-22T00:35:21;32.90;;;18.73;;
1390;SDS011;690;51.454;7.194;2024-03-22T00:37:48;30.77;;;19.27;;
1390;SDS011;690;51.454;7.194;2024-03-22T00:40:14;33.37;;;18.23;;
1390;SDS011;690;51.454;7.194;2024-03-22T00:42:41;42.77;;;21.20;;
1390;SDS011;690;51.454;7.194;2024-03-22T00:45:07;34.13;;;19.60;;
1390;SDS011;690;51.454;7.194;2024-03-22T00:47:34;32.13;;;18.50;;
1390;SDS011;690;51.454;7.194;2024-03-22T00:50:00;33.00;;;18.60;;
1390;SDS011;690;51.454;7.194;2024-03-22T00:52:28;34.87;;;17.97;;
1390;SDS011;690;51.454;7.194;2024-03-22T00:54:55;34.40;;;17.40;;
1390;SDS011;690;51.454;7.194;2024-03-22T00:57:21;32.40;;;18.97;;
1390;SDS011;690;51.454;7.194;2024-03-22T00:59:48;35.07;;;19.53;;
1390;SDS011;690;51.454;7.194;2024-03-22T01:02:14;33.93;;;20.00;;
1390;SDS011;690;51.454;7.194;2024-03-22T01:04:41;42.20;;;20.43;;
1390;SDS011;690;51.454;7.194;2024-03-22T01:07:07;33.23;;;20.60;;
1390;SDS011;690;51.454;7.194;2024-03-22T01:09:35;35.17;;;18.90;;
1390;SDS011;690;51.454;7.194;2024-03-22T01:12:01;38.07;;;19.27;;
1390;SDS011;690;51.454;7.194;2024-03-22T01:14:28;32.97;;;18.90;;
1390;SDS011;690;51.454;7.194;2024-03-22T01:16:54;33.33;;;20.03;;
1390;SDS011;690;51.454;7.194;2024-03-22T01:19:21;34.93;;;19.23;;
1390;SDS011;690;51.454;7.194;2024-03-22T01:21:48;36.00;;;19.00;;
1390;SDS011;690;51.454;7.194;2024-03-22T01:24:14;32.47;;;18.97;;
1390;SDS011;690;51.454;7.194;2024-03-22T01:26:42;34.80;;;20.60;;
1390;SDS011;690;51.454;7.194;2024-03-22T01:29:09;36.80;;;19.67;;
1390;SDS011;690;51.454;7.194;2024-03-22T01:31:35;33.60;;;19.10;;
1390;SDS011;690;51.454;7.194;2024-03-22T01:34:01;36.07;;;20.43;;
1390;SDS011;690;51.454;7.194;2024-03-22T01:36:27;36.00;;;20.10;;
1390;SDS011;690;51.454;7.194;2024-03-22T01:38:54;33.80;;;19.17;;
1390;SDS011;690;51.454;7.194;2024-03-22T01:41:20;36.60;;;21.60;;
1390;SDS011;690;51.454;7.194;2024-03-22T01:43:48;37.37;;;19.97;;
1390;SDS011;690;51.454;7.194;2024-03-22T01:46:14;32.43;;;19.20;;
1390;SDS011;690;51.454;7.194;2024-03-22T01:48:41;33.80;;;19.27;;
1390;SDS011;690;51.454;7.194;2024-03-22T01:51:07;35.10;;;21.23;;
1390;SDS011;690;51.454;7.194;2024-03-22T01:53:35;37.20;;;19.87;;
1390;SDS011;690;51.454;7.194;2024-03-22T01:56:03;34.60;;;19.27;;
1390;SDS011;690;51.454;7.194;2024-03-22T01:58:30;32.27;;;20.10;;
1390;SDS011;690;51.454;7.194;2024-03-22T02:00:58;40.10;;;20.50;;
1390;SDS011;690;51.454;7.194;2024-03-22T02:03:25;33.63;;;21.63;;
1390;SDS011;690;51.454;7.194;2024-03-22T02:05:51;31.13;;;20.33;;
1390;SDS011;690;51.454;7.194;2024-03-22T02:08:18;41.67;;;21.43;;
1390;SDS011;690;51.454;7.194;2024-03-22T02:10:44;35.03;;;19.17;;
1390;SDS011;690;51.454;7.194;2024-03-22T02:13:11;34.73;;;20.73;;
1390;SDS011;690;51.454;7.194;2024-03-22T02:15:37;35.03;;;19.80;;
1390;SDS011;690;51.454;7.194;2024-03-22T02:18:06;31.40;;;18.70;;
1390;SDS011;690;51.454;7.194;2024-03-22T02:20:31;33.00;;;19.50;;
1390;SDS011;690;51.454;7.194;2024-03-22T02:22:58;30.17;;;17.53;;
1390;SDS011;690;51.454;7.194;2024-03-22T02:25:26;34.70;;;20.50;;
1390;SDS011;690;51.454;7.194;2024-03-22T02:27:52;25.70;;;17.07;;
1390;SDS011;690;51.454;7.194;2024-03-22T02:30:18;35.90;;;19.87;;
1390;SDS011;690;51.454;7.194;2024-03-22T02:32:45;29.90;;;17.77;;
1390;SDS011;690;51.454;7.194;2024-03-22T02:35:11;35.17;;;18.53;;
1390;SDS011;690;51.454;7.194;2024-03-22T02:37:38;36.80;;;18.03;;
1390;SDS011;690;51.454;7.194;2024-03-22T02:40:04;38.83;;;19.67;;
1390;SDS011;690;51.454;7.194;2024-03-22T02:42:34;32.73;;;17.03;;
1390;SDS011;690;51.454;7.194;2024-03-22T02:44:59;35.70;;;19.80;;
1390;SDS011;690;51.454;7.194;2024-03-22T02:47:26;33.57;;;20.23;;
1390;SDS011;690;51.454;7.194;2024-03-22T02:49:52;36.07;;;18.50;;
1390;SDS011;690;51.454;7.194;2024-03-22T02:52:19;30.07;;;17.70;;
1390;SDS011;690;51.454;7.194;2024-03-22T02:54:45;29.17;;;18.40;;
1390;SDS011;690;51.454;7.194;2024-03-22T02:57:12;29.97;;;17.73;;
1390;SDS011;690;51.454;7.194;2024-03-22T02:59:39;28.93;;;18.13;;
1390;SDS011;690;51.454;7.194;2024-03-22T03:02:06;35.87;;;19.03;;
1390;SDS011;690;51.454;7.194;2024-03-22T03:04:32;32.70;;;20.70;;
1390;SDS011;690;51.454;7.194;2024-03-22T03:06:59;26.30;;;16.87;;
1390;SDS011;690;51.454;7.194;2024-03-22T03:09:25;34.63;;;20.83;;
1390;SDS011;690;51.454;7.194;2024-03-22T03:11:52;31.27;;;19.93;;
1390;SDS011;690;51.454;7.194;2024-03-22T03:14:18;29.37;;;19.27;;
1390;SDS011;690;51.454;7.194;2024-03-22T03:16:46;27.90;;;18.07;;
1390;SDS011;690;51.454;7.194;2024-03-22T03:19:12;31.67;;;19.57;;
1390;SDS011;690;51.454;7.194;2024-03-22T03:21:39;29.80;;;17.30;;
1390;SDS011;690;51.454;7.194;2024-03-22T03:24:05;29.80;;;17.50;;
1390;SDS011;690;51.454;7.194;2024-03-22T03:26:34;28.80;;;17.00;;
1390;SDS011;690;51.454;7.194;2024-03-22T03:29:00;33.90;;;18.03;;
1390;SDS011;690;51.454;7.194;2024-03-22T03:31:27;29.87;;;18.07;;
1390;SDS011;690;51.454;7.194;2024-03-22T03:33:54;31.67;;;18.23;;
1390;SDS011;690;51.454;7.194;2024-03-22T03:36:21;29.23;;;18.53;;
1390;SDS011;690;51.454;7.194;2024-03-22T03:38:47;29.67;;;17.20;;
1390;SDS011;690;51.454;7.194;2024-03-22T03:41:14;30.67;;;18.50;;
1390;SDS011;690;51.454;7.194;2024-03-22T03:43:40;28.57;;;17.70;;
1390;SDS011;690;51.454;7.194;2024-03-22T03:46:06;33.40;;;19.00;;
1390;SDS011;690;51.454;7.194;2024-03-22T03:48:32;29.57;;;19.10;;
1390;SDS011;690;51.454;7.194;2024-03-22T03:51:01;34.87;;;18.30;;
1390;SDS011;690;51.454;7.194;2024-03-22T03:53:28;35.17;;;19.43;;
1390;SDS011;690;51.454;7.194;2024-03-22T03:55:55;26.13;;;17.67;;
1390;SDS011;690;51.454;7.194;2024-03-22T03:58:21;29.70;;;18.10;;
1390;SDS011;690;51.454;7.194;2024-03-22T04:00:48;30.00;;;18.00;;
1390;SDS011;690;51.454;7.194;2024-03-22T04:03:14;31.63;;;17.97;;
1390;SDS011;690;51.454;7.194;2024-03-22T04:05:41;31.13;;;18.30;;
1390;SDS011;690;51.454;7.194;2024-03-22T04:08:08;31.13;;;18.63;;
1390;SDS011;690;51.454;7.194;2024-03-22T04:10:36;30.40;;;18.33;;
1390;SDS011;690;51.454;7.194;2024-03-22T04:13:02;30.37;;;17.97;;
1390;SDS011;690;51.454;7.194;2024-03-22T04:15:33;29.37;;;18.90;;
1390;SDS011;690;51.454;7.194;2024-03-22T04:17:59;27.13;;;17.50;;
1390;SDS011;690;51.454;7.194;2024-03-22T04:20:26;31.27;;;18.87;;
1390;SDS011;690;51.454;7.194;2024-03-22T04:22:52;30.20;;;18.87;;
1390;SDS011;690;51.454;7.194;2024-03-22T04:25:20;33.80;;;18.37;;
1390;SDS011;690;51.454;7.194;2024-03-22T04:27:46;30.20;;;18.10;;
1390;SDS011;690;51.454;7.194;2024-03-22T04:30:13;30.57;;;17.47;;
1390;SDS011;690;51.454;7.194;2024-03-22T04:32:39;31.90;;;17.60;;
1390;SDS011;690;51.454;7.194;2024-03-22T04:35:06;29.53;;;17.33;;
1390;SDS011;690;51.454;7.194;2024-03-22T04:37:32;26.40;;;17.07;;
1390;SDS011;690;51.454;7.194;2024-03-22T04:39:59;26.93;;;16.67;;
1390;SDS011;690;51.454;7.194;2024-03-22T04:42:28;27.03;;;16.73;;
1390;SDS011;690;51.454;7.194;2024-03-22T04:44:55;25.90;;;15.80;;
1390;SDS011;690;51.454;7.194;2024-03-22T04:47:22;21.13;;;14.83;;
1390;SDS011;690;51.454;7.194;2024-03-22T04:49:48;22.37;;;15.60;;
1390;SDS011;690;51.454;7.194;2024-03-22T04:52:15;32.83;;;17.20;;
1390;SDS011;690;51.454;7.194;2024-03-22T04:54:41;32.00;;;15.93;;
1390;SDS011;690;51.454;7.194;2024-03-22T04:57:08;26.10;;;16.27;;
1390;SDS011;690;51.454;7.194;2024-03-22T04:59:35;31.20;;;16.40;;
1390;SDS011;690;51.454;7.194;2024-03-22T05:02:02;28.20;;;15.80;;
1390;SDS011;690;51.454;7.194;2024-03-22T05:04:28;30.37;;;17.87;;
1390;SDS011;690;51.454;7.194;2024-03-22T05:06:55;27.57;;;14.40;;
1390;SDS011;690;51.454;7.194;2024-03-22T05:09:21;25.17;;;16.07;;
1390;SDS011;690;51.454;7.194;2024-03-22T05:11:48;25.60;;;16.57;;
1390;SDS011;690;51.454;7.194;2024-03-22T05:14:16;26.97;;;15.23;;
1390;SDS011;690;51.454;7.194;2024-03-22T05:16:44;24.90;;;15.10;;
1390;SDS011;690;51.454;7.194;2024-03-22T05:19:10;24.80;;;15.83;;
1390;SDS011;690;51.454;7.194;2024-03-22T05:21:37;23.70;;;16.50;;
1390;SDS011;690;51.454;7.194;2024-03-22T05:24:03;25.00;;;16.07;;
1390;SDS011;690;51.454;7.194;2024-03-22T05:26:30;25.87;;;17.27;;
1390;SDS011;690;51.454;7.194;2024-03-22T05:29:01;24.00;;;16.53;;
1390;SDS011;690;51.454;7.194;2024-03-22T05:31:28;27.20;;;17.03;;
1390;SDS011;690;51.454;7.194;2024-03-22T05:33:55;27.37;;;16.10;;
1390;SDS011;690;51.454;7.194;2024-03-22T05:36:22;22.53;;;15.33;;
1390;SDS011;690;51.454;7.194;2024-03-22T05:38:48;24.80;;;16.10;;
1390;SDS011;690;51.454;7.194;2024-03-22T05:41:15;28.60;;;16.30;;
1390;SDS011;690;51.454;7.194;2024-03-22T05:43:41;25.83;;;15.80;;
1390;SDS011;690;51.454;7.194;2024-03-22T05:46:08;25.93;;;15.43;;
1390;SDS011;690;51.454;7.194;2024-03-22T05:48:34;26.27;;;15.60;;
1390;SDS011;690;51.454;7.194;2024-03-22T05:51:02;24.23;;;16.20;;
1390;SDS011;690;51.454;7.194;2024-03-22T05:53:28;25.07;;;15.23;;
1390;SDS011;690;51.454;7.194;2024-03-22T05:55:55;21.27;;;14.50;;
1390;SDS011;690;51.454;7.194;2024-03-22T05:58:21;25.87;;;15.90;;
1390;SDS011;690;51.454;7.194;2024-03-22T06:00:48;22.60;;;15.67;;
1390;SDS011;690;51.454;7.194;2024-03-22T06:03:14;22.53;;;15.37;;
1390;SDS011;690;51.454;7.194;2024-03-22T06:05:41;20.70;;;14.67;;
1390;SDS011;690;51.454;7.194;2024-03-22T06:08:08;21.27;;;14.77;;
1390;SDS011;690;51.454;7.194;2024-03-22T06:10:35;20.80;;;15.20;;
1390;SDS011;690;51.454;7.194;2024-03-22T06:13:01;25.43;;;15.77;;
1390;SDS011;690;51.454;7.194;2024-03-22T06:15:28;25.50;;;16.23;;
1390;SDS011;690;51.454;7.194;2024-03-22T06:17:54;19.20;;;13.87;;
1390;SDS011;690;51.454;7.194;2024-03-22T06:20:21;23.57;;;14.10;;
1390;SDS011;690;51.454;7.194;2024-03-22T06:22:47;19.40;;;13.80;;
1390;SDS011;690;51.454;7.194;2024-03-22T06:25:15;21.97;;;13.20;;
1390;SDS011;690;51.454;7.194;2024-03-22T06:27:41;21.83;;;13.47;;
1390;SDS011;690;51.454;7.194;2024-03-22T06:30:08;23.67;;;14.83;;
1390;SDS011;690;51.454;7.194;2024-03-22T06:32:35;22.10;;;14.50;;
1390;SDS011;690;51.454;7.194;2024-03-22T06:35:02;18.30;;;13.97;;
1390;SDS011;690;51.454;7.194;2024-03-22T06:37:28;18.60;;;13.17;;
1390;SDS011;690;51.454;7.194;2024-03-22T06:39:55;18.63;;;13.70;;
1390;SDS011;690;51.454;7.194;2024-03-22T06:42:22;23.47;;;13.03;;
1390;SDS011;690;51.454;7.194;2024-03-22T06:44:49;23.90;;;14.70;;
1390;SDS011;690;51.454;7.194;2024-03-22T06:47:15;22.33;;;14.00;;
1390;SDS011;690;51.454;7.194;2024-03-22T06:49:42;19.13;;;14.00;;
1390;SDS011;690;51.454;7.194;2024-03-22T06:52:08;23.53;;;13.57;;
1390;SDS011;690;51.454;7.194;2024-03-22T06:54:35;19.47;;;13.30;;
1390;SDS011;690;51.454;7.194;2024-03-22T06:57:01;18.57;;;13.20;;
1390;SDS011;690;51.454;7.194;2024-03-22T06:59:29;19.30;;;14.00;;
1390;SDS011;690;51.454;7.194;2024-03-22T07:01:55;17.13;;;13.10;;
1390;SDS011;690;51.454;7.194;2024-03-22T07:04:22;19.33;;;12.97;;
1390;SDS011;690;51.454;7.194;2024-03-22T07:06:48;19.57;;;13.53;;
1390;SDS011;690;51.454;7.194;2024-03-22T07:09:15;19.93;;;13.10;;
1390;SDS011;690;51.454;7.194;2024-03-22T07:11:41;19.30;;;12.70;;
1390;SDS011;690;51.454;7.194;2024-03-22T07:14:08;19.77;;;12.93;;
1390;SDS011;690;51.454;7.194;2024-03-22T07:16:35;23.37;;;13.50;;
1390;SDS011;690;51.454;7.194;2024-03-22T07:19:03;19.97;;;13.40;;
1390;SDS011;690;51.454;7.194;2024-03-22T07:21:29;16.37;;;12.30;;
1390;SDS011;690;51.454;7.194;2024-03-22T07:23:56;22.13;;;14.83;;
1390;SDS011;690;51.454;7.194;2024-03-22T07:26:22;20.13;;;13.10;;
1390;SDS011;690;51.454;7.194;2024-03-22T07:28:48;18.40;;;13.13;;
1390;SDS011;690;51.454;7.194;2024-03-22T07:31:14;22.87;;;13.70;;
1390;SDS011;690;51.454;7.194;2024-03-22T07:33:43;21.03;;;14.20;;
1390;SDS011;690;51.454;7.194;2024-03-22T07:36:09;17.90;;;12.90;;
1390;SDS011;690;51.454;7.194;2024-03-22T07:38:35;17.50;;;11.20;;
1390;SDS011;690;51.454;7.194;2024-03-22T07:41:03;20.20;;;14.27;;
1390;SDS011;690;51.454;7.194;2024-03-22T07:43:30;18.37;;;12.97;;
1390;SDS011;690;51.454;7.194;2024-03-22T07:45:56;18.40;;;12.00;;
1390;SDS011;690;51.454;7.194;2024-03-22T07:48:23;20.90;;;13.00;;
1390;SDS011;690;51.454;7.194;2024-03-22T07:50:56;17.00;;;13.23;;
1390;SDS011;690;51.454;7.194;2024-03-22T07:53:24;19.20;;;13.30;;
1390;SDS011;690;51.454;7.194;2024-03-22T07:55:50;17.73;;;12.27;;
1390;SDS011;690;51.454;7.194;2024-03-22T07:58:17;19.43;;;13.67;;
1390;SDS011;690;51.454;7.194;2024-03-22T08:00:42;16.70;;;12.07;;
1390;SDS011;690;51.454;7.194;2024-03-22T08:03:09;17.03;;;12.33;;
1390;SDS011;690;51.454;7.194;2024-03-22T08:05:40;16.83;;;11.37;;
1390;SDS011;690;51.454;7.194;2024-03-22T08:08:09;16.10;;;12.27;;
1390;SDS011;690;51.454;7.194;2024-03-22T08:10:35;17.10;;;11.80;;
1390;SDS011;690;51.454;7.194;2024-03-22T08:13:02;19.27;;;12.67;;
1390;SDS011;690;51.454;7.194;2024-03-22T08:15:29;18.30;;;11.67;;
1390;SDS011;690;51.454;7.194;2024-03-22T08:17:56;20.40;;;12.17;;
1390;SDS011;690;51.454;7.194;2024-03-22T08:20:22;16.83;;;11.47;;
1390;SDS011;690;51.454;7.194;2024-03-22T08:22:49;21.03;;;11.90;;
1390;SDS011;690;51.454;7.194;2024-03-22T08:25:16;16.90;;;11.80;;
1390;SDS011;690;51.454;7.194;2024-03-22T08:27:45;16.70;;;12.60;;
1390;SDS011;690;51.454;7.194;2024-03-22T08:30:11;16.87;;;11.80;;
1390;SDS011;690;51.454;7.194;2024-03-22T08:32:39;22.70;;;11.77;;
1390;SDS011;690;51.454;7.194;2024-03-22T08:35:05;16.50;;;11.40;;
1390;SDS011;690;51.454;7.194;2024-03-22T08:37:32;16.53;;;11.07;;
1390;SDS011;690;51.454;7.194;2024-03-22T08:39:59;14.97;;;11.03;;
1390;SDS011;690;51.454;7.194;2024-03-22T08:42:27;13.77;;;10.13;;
1390;SDS011;690;51.454;7.194;2024-03-22T08:44:54;12.77;;;9.93;;
1390;SDS011;690;51.454;7.194;2024-03-22T08:47:20;14.17;;;9.60;;
1390;SDS011;690;51.454;7.194;2024-03-22T08:49:46;14.77;;;11.30;;
1390;SDS011;690;51.454;7.194;2024-03-22T08:52:14;14.67;;;10.63;;
1390;SDS011;690;51.454;7.194;2024-03-22T08:54:40;19.57;;;10.23;;
1390;SDS011;690;51.454;7.194;2024-03-22T08:57:07;16.70;;;10.30;;
1390;SDS011;690;51.454;7.194;2024-03-22T08:59:34;19.57;;;9.53;;
1390;SDS011;690;51.454;7.194;2024-03-22T09:02:03;21.20;;;9.50;;
1390;SDS011;690;51.454;7.194;2024-03-22T09:04:29;14.30;;;9.30;;
1390;SDS011;690;51.454;7.194;2024-03-22T09:06:56;14.30;;;9.67;;
1390;SDS011;690;51.454;7.194;2024-03-22T09:09:23;14.07;;;10.73;;
1390;SDS011;690;51.454;7.194;2024-03-22T09:11:50;13.43;;;10.30;;
1390;SDS011;690;51.454;7.194;2024-03-22T09:14:16;15.10;;;9.40;;
1390;SDS011;690;51.454;7.194;2024-03-22T09:16:44;17.60;;;10.43;;
1390;SDS011;690;51.454;7.194;2024-03-22T09:19:10;17.80;;;10.43;;
1390;SDS011;690;51.454;7.194;2024-03-22T09:21:37;15.63;;;9.47;;
1390;SDS011;690;51.454;7.194;2024-03-22T09:24:03;12.97;;;9.17;;
1390;SDS011;690;51.454;7.194;2024-03-22T09:26:31;15.07;;;10.70;;
1390;SDS011;690;51.454;7.194;2024-03-22T09:28:57;14.77;;;10.20;;
1390;SDS011;690;51.454;7.194;2024-03-22T09:31:24;19.17;;;10.57;;
1390;SDS011;690;51.454;7.194;2024-03-22T09:33:51;18.03;;;9.17;;
1390;SDS011;690;51.454;7.194;2024-03-22T09:36:18;17.53;;;9.93;;
1390;SDS011;690;51.454;7.194;2024-03-22T09:38:44;13.33;;;8.93;;
1390;SDS011;690;51.454;7.194;2024-03-22T09:41:11;12.07;;;8.73;;
1390;SDS011;690;51.454;7.194;2024-03-22T09:43:39;15.67;;;9.30;;
1390;SDS011;690;51.454;7.194;2024-03-22T09:46:09;12.93;;;9.70;;
1390;SDS011;690;51.454;7.194;2024-03-22T09:48:37;10.07;;;8.03;;
1390;SDS011;690;51.454;7.194;2024-03-22T09:51:06;12.80;;;8.50;;
1390;SDS011;690;51.454;7.194;2024-03-22T09:53:33;14.17;;;9.10;;
1390;SDS011;690;51.454;7.194;2024-03-22T09:56:01;12.40;;;8.80;;
1390;SDS011;690;51.454;7.194;2024-03-22T09:58:27;15.67;;;9.40;;
1390;SDS011;690;51.454;7.194;2024-03-22T10:00:54;11.00;;;8.43;;
1390;SDS011;690;51.454;7.194;2024-03-22T10:03:25;14.73;;;9.00;;
1390;SDS011;690;51.454;7.194;2024-03-22T10:05:52;12.80;;;9.40;;
1390;SDS011;690;51.454;7.194;2024-03-22T10:08:19;15.10;;;9.37;;
1390;SDS011;690;51.454;7.194;2024-03-22T10:10:46;12.90;;;9.10;;
1390;SDS011;690;51.454;7.194;2024-03-22T10:13:12;13.87;;;9.93;;
1390;SDS011;690;51.454;7.194;2024-03-22T10:15:39;13.43;;;8.60;;
1390;SDS011;690;51.454;7.194;2024-03-22T10:18:05;15.10;;;8.90;;
1390;SDS011;690;51.454;7.194;2024-03-22T10:20:33;17.43;;;9.67;;
1390;SDS011;690;51.454;7.194;2024-03-22T10:23:01;13.30;;;9.00;;
1390;SDS011;690;51.454;7.194;2024-03-22T10:25:29;11.13;;;8.40;;
1390;SDS011;690;51.454;7.194;2024-03-22T10:27:55;12.27;;;8.77;;
1390;SDS011;690;51.454;7.194;2024-03-22T10:30:24;13.47;;;9.67;;
1390;SDS011;690;51.454;7.194;2024-03-22T10:32:51;13.30;;;9.17;;
1390;SDS011;690;51.454;7.194;2024-03-22T10:35:17;11.77;;;9.83;;
1390;SDS011;690;51.454;7.194;2024-03-22T10:37:44;13.90;;;9.30;;
1390;SDS011;690;51.454;7.194;2024-03-22T10:40:10;12.57;;;8.87;;
1390;SDS011;690;51.454;7.194;2024-03-22T10:42:40;13.50;;;9.87;;
1390;SDS011;690;51.454;7.194;2024-03-22T10:45:08;14.33;;;10.20;;
1390;SDS011;690;51.454;7.194;2024-03-22T10:47:36;12.23;;;9.27;;
1390;SDS011;690;51.454;7.194;2024-03-22T10:50:04;14.33;;;8.67;;
1390;SDS011;690;51.454;7.194;2024-03-22T10:52:33;11.70;;;9.10;;
1390;SDS011;690;51.454;7.194;2024-03-22T10:55:03;14.30;;;9.83;;
1390;SDS011;690;51.454;7.194;2024-03-22T10:57:32;15.90;;;10.30;;
1390;SDS011;690;51.454;7.194;2024-03-22T11:00:03;13.77;;;9.80;;
1390;SDS011;690;51.454;7.194;2024-03-22T11:02:35;14.07;;;10.30;;
1390;SDS011;690;51.454;7.194;2024-03-22T11:05:02;18.87;;;11.27;;
1390;SDS011;690;51.454;7.194;2024-03-22T11:07:29;16.23;;;10.20;;
1390;SDS011;690;51.454;7.194;2024-03-22T11:09:56;12.73;;;9.90;;
1390;SDS011;690;51.454;7.194;2024-03-22T11:12:24;12.87;;;9.47;;
1390;SDS011;690;51.454;7.194;2024-03-22T11:14:50;15.97;;;11.07;;
1390;SDS011;690;51.454;7.194;2024-03-22T11:17:19;15.80;;;10.03;;
1390;SDS011;690;51.454;7.194;2024-03-22T11:19:48;14.40;;;11.27;;
1390;SDS011;690;51.454;7.194;2024-03-22T11:22:15;13.40;;;10.20;;
1390;SDS011;690;51.454;7.194;2024-03-22T11:24:41;14.10;;;10.40;;
1390;SDS011;690;51.454;7.194;2024-03-22T11:27:07;12.57;;;10.17;;
1390;SDS011;690;51.454;7.194;2024-03-22T11:29:35;12.90;;;10.07;;
1390;SDS011;690;51.454;7.194;2024-03-22T11:32:05;15.37;;;11.00;;
1390;SDS011;690;51.454;7.194;2024-03-22T11:34:37;14.43;;;11.90;;
1390;SDS011;690;51.454;7.194;2024-03-22T11:37:04;14.27;;;10.13;;
1390;SDS011;690;51.454;7.194;2024-03-22T11:39:35;13.07;;;10.37;;
1390;SDS011;690;51.454;7.194;2024-03-22T11:42:01;14.73;;;10.33;;
1390;SDS011;690;51.454;7.194;2024-03-22T11:44:29;14.20;;;9.43;;
1390;SDS011;690;51.454;7.194;2024-03-22T11:46:56;15.93;;;9.63;;
1390;SDS011;690;51.454;7.194;2024-03-22T11:49:23;11.90;;;9.20;;
1390;SDS011;690;51.454;7.194;2024-03-22T11:51:52;14.17;;;10.00;;
1390;SDS011;690;51.454;7.194;2024-03-22T11:54:20;13.77;;;8.90;;
1390;SDS011;690;51.454;7.194;2024-03-22T11:56:46;12.60;;;8.77;;
1390;SDS011;690;51.454;7.194;2024-03-22T11:59:13;13.00;;;8.90;;
1390;SDS011;690;51.454;7.194;2024-03-22T12:01:40;11.73;;;9.40;;
1390;SDS011;690;51.454;7.194;2024-03-22T12:04:07;15.40;;;11.07;;
1390;SDS011;690;51.454;7.194;2024-03-22T12:06:35;14.23;;;10.73;;
1390;SDS011;690;51.454;7.194;2024-03-22T12:09:03;17.60;;;11.10;;
1390;SDS011;690;51.454;7.194;2024-03-22T12:11:29;18.40;;;11.70;;
1390;SDS011;690;51.454;7.194;2024-03-22T12:13:56;16.27;;;11.03;;
1390;SDS011;690;51.454;7.194;2024-03-22T12:16:22;19.20;;;11.87;;
1390;SDS011;690;51.454;7.194;2024-03-22T12:18:49;16.30;;;11.63;;
1390;SDS011;690;51.454;7.194;2024-03-22T12:21:15;15.97;;;10.90;;
1390;SDS011;690;51.454;7.194;2024-03-22T12:23:44;16.93;;;10.87;;
1390;SDS011;690;51.454;7.194;2024-03-22T12:26:11;13.03;;;10.50;;
1390;SDS011;690;51.454;7.194;2024-03-22T12:28:38;16.13;;;10.00;;
1390;SDS011;690;51.454;7.194;2024-03-22T12:31:04;16.40;;;11.03;;
1390;SDS011;690;51.454;7.194;2024-03-22T12:33:31;16.03;;;10.47;;
1390;SDS011;690;51.454;7.194;2024-03-22T12:35:57;14.37;;;10.37;;
1390;SDS011;690;51.454;7.194;2024-03-22T12:38:25;13.53;;;10.10;;
1390;SDS011;690;51.454;7.194;2024-03-22T12:40:51;19.93;;;11.43;;
1390;SDS011;690;51.454;7.194;2024-03-22T12:43:19;18.53;;;11.27;;
1390;SDS011;690;51.454;7.194;2024-03-22T12:45:45;15.20;;;11.40;;
1390;SDS011;690;51.454;7.194;2024-03-22T12:48:12;16.97;;;11.50;;
1390;SDS011;690;51.454;7.194;2024-03-22T12:50:38;14.50;;;12.03;;
1390;SDS011;690;51.454;7.194;2024-03-22T12:53:05;15.70;;;12.30;;
1390;SDS011;690;51.454;7.194;2024-03-22T12:55:31;14.47;;;11.63;;
1390;SDS011;690;51.454;7.194;2024-03-22T12:57:58;14.67;;;12.07;;
1390;SDS011;690;51.454;7.194;2024-03-22T13:00:25;13.57;;;10.80;;
1390;SDS011;690;51.454;7.194;2024-03-22T13:02:52;17.97;;;12.53;;
1390;SDS011;690;51.454;7.194;2024-03-22T13:05:19;16.83;;;13.13;;
1390;SDS011;690;51.454;7.194;2024-03-22T13:07:45;18.33;;;12.57;;
1390;SDS011;690;51.454;7.194;2024-03-22T13:10:11;18.10;;;12.30;;
1390;SDS011;690;51.454;7.194;2024-03-22T13:12:38;14.60;;;10.97;;
1390;SDS011;690;51.454;7.194;2024-03-22T13:15:04;16.43;;;11.60;;
1390;SDS011;690;51.454;7.194;2024-03-22T13:17:33;19.00;;;12.20;;
1390;SDS011;690;51.454;7.194;2024-03-22T13:19:59;16.90;;;11.97;;
1390;SDS011;690;51.454;7.194;2024-03-22T13:22:26;17.27;;;11.40;;
1390;SDS011;690;51.454;7.194;2024-03-22T13:24:52;15.90;;;11.67;;
1390;SDS011;690;51.454;7.194;2024-03-22T13:27:20;19.70;;;14.30;;
1390;SDS011;690;51.454;7.194;2024-03-22T13:29:47;18.87;;;13.93;;
1390;SDS011;690;51.454;7.194;2024-03-22T13:32:14;15.80;;;10.17;;
1390;SDS011;690;51.454;7.194;2024-03-22T13:34:42;13.83;;;12.23;;
1390;SDS011;690;51.454;7.194;2024-03-22T13:37:09;18.50;;;13.57;;
1390;SDS011;690;51.454;7.194;2024-03-22T13:39:35;23.47;;;14.97;;
1390;SDS011;690;51.454;7.194;2024-03-22T13:42:05;23.07;;;17.97;;
1390;SDS011;690;51.454;7.194;2024-03-22T13:44:32;26.80;;;19.30;;
1390;SDS011;690;51.454;7.194;2024-03-22T13:46:59;30.50;;;23.03;;
1390;SDS011;690;51.454;7.194;2024-03-22T13:49:25;32.40;;;21.90;;
1390;SDS011;690;51.454;7.194;2024-03-22T13:51:53;39.20;;;24.70;;
1390;SDS011;690;51.454;7.194;2024-03-22T13:54:19;36.10;;;23.97;;
1390;SDS011;690;51.454;7.194;2024-03-22T13:56:47;29.63;;;23.57;;
1390;SDS011;690;51.454;7.194;2024-03-22T13:59:13;26.20;;;19.17;;
1390;SDS011;690;51.454;7.194;2024-03-22T14:01:41;26.23;;;18.77;;
1390;SDS011;690;51.454;7.194;2024-03-22T14:04:10;26.10;;;18.93;;
1390;SDS011;690;51.454;7.194;2024-03-22T14:06:37;23.73;;;18.43;;
1390;SDS011;690;51.454;7.194;2024-03-22T14:09:05;26.77;;;17.20;;
1390;SDS011;690;51.454;7.194;2024-03-22T14:11:35;21.10;;;16.63;;
1390;SDS011;690;51.454;7.194;2024-03-22T14:14:01;27.23;;;18.33;;
1390;SDS011;690;51.454;7.194;2024-03-22T14:16:28;30.27;;;19.13;;
1390;SDS011;690;51.454;7.194;2024-03-22T14:18:55;28.63;;;20.57;;
1390;SDS011;690;51.454;7.194;2024-03-22T14:21:22;31.47;;;21.30;;
1390;SDS011;690;51.454;7.194;2024-03-22T14:23:48;33.90;;;21.80;;
1390;SDS011;690;51.454;7.194;2024-03-22T14:26:17;34.10;;;22.90;;
1390;SDS011;690;51.454;7.194;2024-03-22T14:28:44;28.47;;;21.77;;
1390;SDS011;690;51.454;7.194;2024-03-22T14:31:12;28.13;;;21.00;;
1390;SDS011;690;51.454;7.194;2024-03-22T14:33:39;13.17;;;9.80;;
1390;SDS011;690;51.454;7.194;2024-03-22T14:36:06;24.47;;;16.77;;
1390;SDS011;690;51.454;7.194;2024-03-22T14:38:34;29.03;;;21.07;;
1390;SDS011;690;51.454;7.194;2024-03-22T14:41:01;26.07;;;19.53;;
1390;SDS011;690;51.454;7.194;2024-03-22T14:43:29;26.20;;;18.20;;
1390;SDS011;690;51.454;7.194;2024-03-22T14:45:59;28.43;;;20.00;;
1390;SDS011;690;51.454;7.194;2024-03-22T14:48:25;34.80;;;21.17;;
1390;SDS011;690;51.454;7.194;2024-03-22T14:50:52;29.97;;;21.00;;
1390;SDS011;690;51.454;7.194;2024-03-22T14:53:18;36.30;;;24.77;;
1390;SDS011;690;51.454;7.194;2024-03-22T14:55:52;36.90;;;26.27;;
1390;SDS011;690;51.454;7.194;2024-03-22T14:58:19;43.87;;;28.20;;
1390;SDS011;690;51.454;7.194;2024-03-22T15:00:57;39.40;;;28.30;;